Time;durP1;ratioP1;P1;durP2;ratioP2;P2;SDS_P1;SDS_P2;PMS_P1;PMS_P2;Temp;Humidity;BMP_temperature;BMP_pressure;BME280_temperature;BME280_humidity;BME280_pressure;Samples;Min_cycle;Max_cycle;Signal;HPM_P1;HPM_P2
2023/04/16 00:01:27;;;;;;;18.00;15.87;;;;;;;;;;5054768;28;20434;-59
2023/04/16 00:03:54;;;;;;;17.63;15.73;;;;;;;;;;5054789;28;20423;-59
2023/04/16 00:06:20;;;;;;;18.77;16.67;;;;;;;;;;5054975;28;20434;-59
2023/04/16 00:08:46;;;;;;;17.23;15.43;;;;;;;;;;5054872;28;20541;-59
2023/04/16 00:11:12;;;;;;;17.97;16.17;;;;;;;;;;5054822;28;20513;-60
2023/04/16 00:13:40;;;;;;;19.97;17.87;;;;;;;;;;5054925;28;20443;-59
2023/04/16 00:16:06;;;;;;;18.00;16.20;;;;;;;;;;5036744;28;20419;-60
2023/04/16 00:18:32;;;;;;;17.20;15.50;;;;;;;;;;5054932;28;20449;-58
2023/04/16 00:20:58;;;;;;;17.80;16.10;;;;;;;;;;5054818;28;20854;-59
2023/04/16 00:23:24;;;;;;;18.97;17.07;;;;;;;;;;5054836;28;20454;-58
2023/04/16 00:25:52;;;;;;;17.30;15.60;;;;;;;;;;5055038;28;20484;-59
2023/04/16 00:28:18;;;;;;;16.83;15.23;;;;;;;;;;5054712;28;20792;-59
2023/04/16 00:30:46;;;;;;;16.40;14.90;;;;;;;;;;5054077;28;20439;-59
2023/04/16 00:33:15;;;;;;;15.90;14.40;;;;;;;;;;5054652;28;20395;-59
2023/04/16 00:35:41;;;;;;;16.20;14.70;;;;;;;;;;5054405;28;20411;-59
2023/04/16 00:38:12;;;;;;;15.70;14.30;;;;;;;;;;5054645;28;20422;-59
2023/04/16 00:40:40;;;;;;;15.30;13.70;;;;;;;;;;5054372;28;20415;-59
2023/04/16 00:43:08;;;;;;;16.03;14.53;;;;;;;;;;5054426;28;20446;-59
2023/04/16 00:45:34;;;;;;;16.93;13.83;;;;;;;;;;5054398;28;20583;-58
2023/04/16 00:48:01;;;;;;;16.00;14.60;;;;;;;;;;5054408;28;20446;-59
2023/04/16 00:50:27;;;;;;;17.37;15.60;;;;;;;;;;5054112;28;20418;-59
2023/04/16 00:52:53;;;;;;;16.80;15.37;;;;;;;;;;5054305;28;20933;-59
2023/04/16 00:55:20;;;;;;;15.17;13.87;;;;;;;;;;5053561;28;20545;-59
2023/04/16 00:57:46;;;;;;;17.20;15.50;;;;;;;;;;5054218;28;20944;-59
2023/04/16 01:00:12;;;;;;;20.73;17.50;;;;;;;;;;5054107;28;20407;-59
2023/04/16 01:02:38;;;;;;;17.07;15.47;;;;;;;;;;5053652;28;20473;-59
2023/04/16 01:05:05;;;;;;;17.10;15.27;;;;;;;;;;5043376;28;20510;-59
2023/04/16 01:07:31;;;;;;;17.90;16.20;;;;;;;;;;5033677;28;20443;-59
2023/04/16 01:09:57;;;;;;;17.37;15.23;;;;;;;;;;5015971;28;20550;-59
2023/04/16 01:12:23;;;;;;;17.87;16.03;;;;;;;;;;5033356;28;20978;-59
2023/04/16 01:14:51;;;;;;;17.80;16.00;;;;;;;;;;5033638;28;20423;-59
2023/04/16 01:17:17;;;;;;;19.53;16.90;;;;;;;;;;5033473;28;20465;-59
2023/04/16 01:19:43;;;;;;;18.73;15.67;;;;;;;;;;5033562;28;20416;-59
2023/04/16 01:22:09;;;;;;;19.17;17.33;;;;;;;;;;5033285;28;20471;-59
2023/04/16 01:24:35;;;;;;;19.37;17.37;;;;;;;;;;5015302;28;20418;-59
2023/04/16 01:27:01;;;;;;;19.30;17.20;;;;;;;;;;5033367;28;20428;-59
2023/04/16 01:29:27;;;;;;;19.63;17.23;;;;;;;;;;5033106;28;20505;-59
2023/04/16 01:31:53;;;;;;;20.20;18.10;;;;;;;;;;5033343;28;20868;-59
2023/04/16 01:34:19;;;;;;;19.80;17.70;;;;;;;;;;5032921;28;20411;-59
2023/04/16 01:36:45;;;;;;;19.70;17.00;;;;;;;;;;5033129;28;20427;-59
2023/04/16 01:39:15;;;;;;;21.87;17.10;;;;;;;;;;5033091;28;20817;-59
2023/04/16 01:41:41;;;;;;;18.93;17.03;;;;;;;;;;5031932;28;20515;-59
2023/04/16 01:44:07;;;;;;;18.00;16.20;;;;;;;;;;5033043;28;20907;-59
2023/04/16 01:46:34;;;;;;;17.83;16.10;;;;;;;;;;5032784;28;20436;-59
2023/04/16 01:49:01;;;;;;;20.97;17.83;;;;;;;;;;5033241;28;20403;-58
2023/04/16 01:51:27;;;;;;;19.97;16.73;;;;;;;;;;5032551;28;20826;-59
2023/04/16 01:53:54;;;;;;;20.53;16.70;;;;;;;;;;5032875;28;20470;-59
2023/04/16 01:56:20;;;;;;;19.57;17.63;;;;;;;;;;5032681;28;20415;-59
2023/04/16 01:58:46;;;;;;;20.40;17.53;;;;;;;;;;5032768;28;20397;-59
2023/04/16 02:01:12;;;;;;;20.97;18.70;;;;;;;;;;5032557;28;20450;-59
2023/04/16 02:03:41;;;;;;;23.20;19.53;;;;;;;;;;5032440;28;20478;-59
2023/04/16 02:06:09;;;;;;;26.73;20.10;;;;;;;;;;5032650;28;20412;-59
2023/04/16 02:08:38;;;;;;;21.80;19.30;;;;;;;;;;5014596;28;20457;-59
2023/04/16 02:11:04;;;;;;;25.40;20.17;;;;;;;;;;5032737;28;20404;-59
2023/04/16 02:13:30;;;;;;;24.23;19.13;;;;;;;;;;5032408;28;20446;-59
2023/04/16 02:15:56;;;;;;;25.73;20.47;;;;;;;;;;5032354;28;20455;-59
2023/04/16 02:18:22;;;;;;;26.33;20.73;;;;;;;;;;5032558;28;20451;-58
2023/04/16 02:20:48;;;;;;;22.57;18.27;;;;;;;;;;5032287;28;20423;-59
2023/04/16 02:23:14;;;;;;;22.90;19.07;;;;;;;;;;5032207;28;20462;-59
2023/04/16 02:25:43;;;;;;;21.23;16.83;;;;;;;;;;5032221;28;20527;-59
2023/04/16 02:28:10;;;;;;;19.97;17.43;;;;;;;;;;5032311;28;20512;-59
2023/04/16 02:30:37;;;;;;;20.87;18.53;;;;;;;;;;5032154;28;20915;-59
2023/04/16 02:33:04;;;;;;;23.27;16.97;;;;;;;;;;5032003;28;20472;-59
2023/04/16 02:35:34;;;;;;;19.37;17.37;;;;;;;;;;5031853;28;20930;-59
2023/04/16 02:38:00;;;;;;;19.60;17.53;;;;;;;;;;5031797;28;20416;-59
2023/04/16 02:40:27;;;;;;;18.80;16.57;;;;;;;;;;5031791;28;20418;-59
2023/04/16 02:42:53;;;;;;;19.00;17.00;;;;;;;;;;5031725;28;20495;-59
2023/04/16 02:45:19;;;;;;;18.63;16.63;;;;;;;;;;5032292;28;20435;-59
2023/04/16 02:47:48;;;;;;;22.40;18.00;;;;;;;;;;5031979;28;20427;-59
2023/04/16 02:50:14;;;;;;;19.83;17.73;;;;;;;;;;5032008;28;20519;-59
2023/04/16 02:52:40;;;;;;;20.97;17.73;;;;;;;;;;5031628;28;20412;-59
2023/04/16 02:55:06;;;;;;;19.23;16.93;;;;;;;;;;5032023;28;20437;-59
2023/04/16 02:57:32;;;;;;;20.10;16.20;;;;;;;;;;5031716;28;20438;-59
2023/04/16 02:59:58;;;;;;;19.17;17.00;;;;;;;;;;5031873;28;20871;-58
2023/04/16 03:02:27;;;;;;;19.57;16.20;;;;;;;;;;5031825;28;20494;-59
2023/04/16 03:04:53;;;;;;;19.27;16.37;;;;;;;;;;5031547;28;20916;-58
2023/04/16 03:07:19;;;;;;;17.80;14.97;;;;;;;;;;5031679;28;20897;-59
2023/04/16 03:09:47;;;;;;;17.40;15.60;;;;;;;;;;5014174;28;20527;-59
2023/04/16 03:12:13;;;;;;;18.20;16.23;;;;;;;;;;5032516;28;20783;-59
2023/04/16 03:14:42;;;;;;;21.00;16.33;;;;;;;;;;5032438;28;20522;-59
2023/04/16 03:17:08;;;;;;;17.87;14.47;;;;;;;;;;5032354;28;20891;-59
2023/04/16 03:19:36;;;;;;;17.83;15.97;;;;;;;;;;5032265;28;20503;-59
2023/04/16 03:22:02;;;;;;;17.23;15.53;;;;;;;;;;5032345;28;20479;-59
2023/04/16 03:24:28;;;;;;;19.80;15.87;;;;;;;;;;5014037;28;20431;-58
2023/04/16 03:26:54;;;;;;;19.90;17.00;;;;;;;;;;5031913;28;20469;-59
2023/04/16 03:29:20;;;;;;;18.30;16.50;;;;;;;;;;5031528;28;20505;-58
2023/04/16 03:31:46;;;;;;;18.10;16.30;;;;;;;;;;5031565;28;20431;-59
2023/04/16 03:34:12;;;;;;;22.33;16.70;;;;;;;;;;5031367;28;20451;-59
2023/04/16 03:36:38;;;;;;;17.50;15.73;;;;;;;;;;5031710;28;20412;-59
2023/04/16 03:39:04;;;;;;;19.00;17.00;;;;;;;;;;5031465;28;20404;-61
2023/04/16 03:41:30;;;;;;;21.70;18.27;;;;;;;;;;5031301;28;20424;-59
2023/04/16 03:43:56;;;;;;;19.73;17.60;;;;;;;;;;5031797;28;20478;-61
2023/04/16 03:46:22;;;;;;;35.40;26.00;;;;;;;;;;5031222;28;20579;-59
2023/04/16 03:48:48;;;;;;;38.50;27.13;;;;;;;;;;5031506;28;20901;-59
2023/04/16 03:51:14;;;;;;;52.13;37.43;;;;;;;;;;5031221;28;20790;-59
2023/04/16 03:53:40;;;;;;;56.50;37.70;;;;;;;;;;5013696;28;20415;-59
2023/04/16 03:56:08;;;;;;;41.47;30.03;;;;;;;;;;5031400;28;20835;-59
2023/04/16 03:58:34;;;;;;;43.70;30.50;;;;;;;;;;5031410;28;20797;-59
2023/04/16 04:01:00;;;;;;;29.53;23.67;;;;;;;;;;5031174;28;20474;-59
2023/04/16 04:03:26;;;;;;;25.43;19.33;;;;;;;;;;5031062;28;20475;-59
2023/04/16 04:05:52;;;;;;;22.20;18.87;;;;;;;;;;5033180;28;20435;-60
2023/04/16 04:08:19;;;;;;;18.77;16.77;;;;;;;;;;5034749;28;20420;-59
2023/04/16 04:10:48;;;;;;;19.70;17.70;;;;;;;;;;5034574;28;20463;-59
2023/04/16 04:13:16;;;;;;;17.47;15.77;;;;;;;;;;5034791;28;20446;-59
2023/04/16 04:15:45;;;;;;;18.30;16.40;;;;;;;;;;5034668;28;20913;-61
2023/04/16 04:18:11;;;;;;;17.67;15.77;;;;;;;;;;5034471;28;20427;-59
2023/04/16 04:20:40;;;;;;;16.77;15.10;;;;;;;;;;5034195;28;20412;-59
2023/04/16 04:23:06;;;;;;;16.30;14.60;;;;;;;;;;5034017;28;20487;-59
2023/04/16 04:25:32;;;;;;;16.70;15.00;;;;;;;;;;5034223;28;20424;-59
2023/04/16 04:27:58;;;;;;;16.13;14.47;;;;;;;;;;5034140;28;20434;-59
2023/04/16 04:30:24;;;;;;;16.60;14.83;;;;;;;;;;5034247;28;20427;-59
2023/04/16 04:32:50;;;;;;;18.63;15.10;;;;;;;;;;5033765;28;20505;-60
2023/04/16 04:35:16;;;;;;;15.90;14.20;;;;;;;;;;5034235;28;20408;-60
2023/04/16 04:37:42;;;;;;;16.00;14.40;;;;;;;;;;5034124;28;20964;-59
2023/04/16 04:40:08;;;;;;;17.27;14.83;;;;;;;;;;5016205;28;20420;-59
2023/04/16 04:42:36;;;;;;;15.27;13.93;;;;;;;;;;5033648;28;20467;-59
2023/04/16 04:45:05;;;;;;;15.77;14.17;;;;;;;;;;5034174;28;20491;-59
2023/04/16 04:47:31;;;;;;;16.37;14.67;;;;;;;;;;5033966;28;20556;-59
2023/04/16 04:49:57;;;;;;;19.03;15.83;;;;;;;;;;5033474;28;20888;-59
2023/04/16 04:52:23;;;;;;;18.70;16.70;;;;;;;;;;5033676;28;20423;-59
2023/04/16 04:54:49;;;;;;;18.30;15.83;;;;;;;;;;5014877;28;20473;-59
2023/04/16 04:57:15;;;;;;;17.77;16.07;;;;;;;;;;5032625;28;20411;-59
2023/04/16 04:59:43;;;;;;;18.57;16.57;;;;;;;;;;5032650;28;20907;-59
2023/04/16 05:02:12;;;;;;;17.97;16.07;;;;;;;;;;5014658;28;20842;-59
2023/04/16 05:04:38;;;;;;;16.20;14.57;;;;;;;;;;5032591;28;20542;-59
2023/04/16 05:07:05;;;;;;;17.63;15.80;;;;;;;;;;5032544;28;20526;-59
2023/04/16 05:09:31;;;;;;;18.10;16.20;;;;;;;;;;5033251;28;20412;-59
2023/04/16 05:11:57;;;;;;;17.73;15.87;;;;;;;;;;5033524;28;20471;-59
2023/04/16 05:14:23;;;;;;;21.17;16.67;;;;;;;;;;5015617;28;20423;-59
2023/04/16 05:16:49;;;;;;;19.10;17.10;;;;;;;;;;5032173;28;20435;-59
2023/04/16 05:19:16;;;;;;;19.60;16.60;;;;;;;;;;5033143;28;20856;-59
2023/04/16 05:21:42;;;;;;;18.30;16.10;;;;;;;;;;5033159;28;20412;-59
2023/04/16 05:24:08;;;;;;;18.80;15.20;;;;;;;;;;5033157;28;20439;-59
2023/04/16 05:26:36;;;;;;;18.83;15.10;;;;;;;;;;5033260;28;20435;-59
2023/04/16 05:29:02;;;;;;;16.60;15.00;;;;;;;;;;5033238;28;20784;-59
2023/04/16 05:31:28;;;;;;;17.43;15.63;;;;;;;;;;5033070;28;20432;-59
2023/04/16 05:33:54;;;;;;;19.57;16.33;;;;;;;;;;5032891;28;20874;-59
2023/04/16 05:36:20;;;;;;;17.90;16.10;;;;;;;;;;5033085;28;20388;-60
2023/04/16 05:38:46;;;;;;;17.47;15.67;;;;;;;;;;5032837;28;20411;-59
2023/04/16 05:41:12;;;;;;;16.57;14.80;;;;;;;;;;5033096;28;20796;-59
2023/04/16 05:43:38;;;;;;;16.60;14.90;;;;;;;;;;5015154;28;20471;-59
2023/04/16 05:46:06;;;;;;;15.57;14.03;;;;;;;;;;5033008;28;20436;-59
2023/04/16 05:48:32;;;;;;;16.83;15.03;;;;;;;;;;5032784;28;20405;-59
2023/04/16 05:50:58;;;;;;;18.63;16.60;;;;;;;;;;5032526;28;20718;-59
2023/04/16 05:53:24;;;;;;;18.53;16.53;;;;;;;;;;5032683;28;20541;-59
2023/04/16 05:55:50;;;;;;;19.30;17.17;;;;;;;;;;5032387;28;20927;-59
2023/04/16 05:58:16;;;;;;;19.43;17.43;;;;;;;;;;5014798;28;20416;-59
2023/04/16 06:00:42;;;;;;;18.37;16.47;;;;;;;;;;5032520;28;20440;-59
2023/04/16 06:03:11;;;;;;;18.90;16.77;;;;;;;;;;5032449;28;20481;-59
2023/04/16 06:05:37;;;;;;;18.13;16.33;;;;;;;;;;5032316;28;20416;-60
2023/04/16 06:08:03;;;;;;;19.27;17.10;;;;;;;;;;5032300;28;20471;-59
2023/04/16 06:10:29;;;;;;;20.60;18.40;;;;;;;;;;5032279;28;20891;-60
2023/04/16 06:12:55;;;;;;;57.57;42.87;;;;;;;;;;5032282;28;20953;-59
2023/04/16 06:15:23;;;;;;;17.17;15.57;;;;;;;;;;5032147;28;20489;-59
2023/04/16 06:17:49;;;;;;;17.77;15.97;;;;;;;;;;5014641;28;20473;-60
2023/04/16 06:20:15;;;;;;;23.57;21.07;;;;;;;;;;5032469;28;20419;-59
2023/04/16 06:22:41;;;;;;;25.40;21.97;;;;;;;;;;5014333;28;20474;-60
2023/04/16 06:25:08;;;;;;;18.50;16.70;;;;;;;;;;5032043;28;20456;-59
2023/04/16 06:27:34;;;;;;;19.00;17.00;;;;;;;;;;5031637;28;20418;-59
2023/04/16 06:30:00;;;;;;;19.70;17.57;;;;;;;;;;5031978;28;20510;-59
2023/04/16 06:32:26;;;;;;;18.80;16.90;;;;;;;;;;5031975;28;20418;-59
2023/04/16 06:34:52;;;;;;;22.67;20.27;;;;;;;;;;5031907;28;20762;-59
2023/04/16 06:37:18;;;;;;;26.43;21.07;;;;;;;;;;5032128;28;20427;-59
2023/04/16 06:39:44;;;;;;;20.80;18.57;;;;;;;;;;5032076;28;20776;-59
2023/04/16 06:42:12;;;;;;;21.20;18.97;;;;;;;;;;5031903;28;20470;-60
2023/04/16 06:44:38;;;;;;;22.60;17.40;;;;;;;;;;5031844;28;20424;-60
2023/04/16 06:47:04;;;;;;;21.93;18.30;;;;;;;;;;5031844;28;20431;-60
2023/04/16 06:49:30;;;;;;;14.03;12.20;;;;;;;;;;5032297;28;20398;-60
2023/04/16 06:51:57;;;;;;;15.73;14.20;;;;;;;;;;5031762;28;20435;-60
2023/04/16 06:54:25;;;;;;;14.33;13.03;;;;;;;;;;5032048;28;20388;-60
2023/04/16 06:56:54;;;;;;;12.13;11.03;;;;;;;;;;5031729;28;20416;-59
2023/04/16 06:59:22;;;;;;;13.40;12.20;;;;;;;;;;5031894;28;20411;-60
2023/04/16 07:01:48;;;;;;;13.00;11.67;;;;;;;;;;5031620;28;20445;-59
2023/04/16 07:04:14;;;;;;;11.60;10.60;;;;;;;;;;5031859;28;20792;-60
2023/04/16 07:06:43;;;;;;;10.93;10.10;;;;;;;;;;5031828;28;20408;-60
2023/04/16 07:09:11;;;;;;;12.67;11.50;;;;;;;;;;5031775;28;20521;-58
2023/04/16 07:11:37;;;;;;;13.10;11.73;;;;;;;;;;5031624;28;20900;-59
2023/04/16 07:14:05;;;;;;;12.50;11.20;;;;;;;;;;5031640;28;20497;-59
2023/04/16 07:16:31;;;;;;;12.60;11.50;;;;;;;;;;5032034;28;20411;-59
2023/04/16 07:18:57;;;;;;;13.33;12.23;;;;;;;;;;5031436;28;20438;-59
2023/04/16 07:21:23;;;;;;;13.50;12.20;;;;;;;;;;5031680;28;20561;-60
2023/04/16 07:23:49;;;;;;;12.23;11.30;;;;;;;;;;5031733;28;20550;-60
2023/04/16 07:26:15;;;;;;;12.10;10.30;;;;;;;;;;5031417;28;20879;-60
2023/04/16 07:28:41;;;;;;;13.00;11.80;;;;;;;;;;5031436;28;20423;-59
2023/04/16 07:31:10;;;;;;;11.53;10.43;;;;;;;;;;5031541;28;20518;-60
2023/04/16 07:33:36;;;;;;;11.80;10.70;;;;;;;;;;5031630;28;20969;-59
2023/04/16 07:36:02;;;;;;;11.40;10.47;;;;;;;;;;5031408;28;20458;-60
2023/04/16 07:38:27;;;;;;;11.50;10.40;;;;;;;;;;5031738;28;20430;-60
2023/04/16 07:40:55;;;;;;;12.17;10.97;;;;;;;;;;5033475;28;20849;-60
2023/04/16 07:43:21;;;;;;;10.77;9.87;;;;;;;;;;5035122;28;20509;-60
2023/04/16 07:45:47;;;;;;;11.80;10.80;;;;;;;;;;5035454;28;20448;-59
2023/04/16 07:48:16;;;;;;;11.50;10.30;;;;;;;;;;5035280;28;20434;-59
2023/04/16 07:50:44;;;;;;;10.77;9.87;;;;;;;;;;5035336;28;20494;-59
2023/04/16 07:53:13;;;;;;;11.10;10.00;;;;;;;;;;5017422;28;20506;-60
2023/04/16 07:55:39;;;;;;;15.00;13.40;;;;;;;;;;5035122;28;20835;-59
2023/04/16 07:58:06;;;;;;;39.43;33.00;;;;;;;;;;5034930;28;20517;-60
2023/04/16 08:00:32;;;;;;;13.00;11.90;;;;;;;;;;5034848;28;20482;-60
2023/04/16 08:02:58;;;;;;;14.30;12.87;;;;;;;;;;5034868;28;20860;-60
2023/04/16 08:05:24;;;;;;;11.20;10.33;;;;;;;;;;5017329;28;20432;-59
2023/04/16 08:07:50;;;;;;;12.20;11.00;;;;;;;;;;5034702;28;20412;-60
2023/04/16 08:10:16;;;;;;;11.30;10.40;;;;;;;;;;5034592;28;20774;-59
2023/04/16 08:12:42;;;;;;;12.03;10.40;;;;;;;;;;5034679;28;20409;-60
2023/04/16 08:15:08;;;;;;;11.60;10.60;;;;;;;;;;5034460;28;20452;-59
2023/04/16 08:17:36;;;;;;;11.13;10.23;;;;;;;;;;5034502;28;20396;-59
2023/04/16 08:20:04;;;;;;;11.10;10.20;;;;;;;;;;5033803;28;20400;-58
2023/04/16 08:22:30;;;;;;;11.10;10.10;;;;;;;;;;5034250;28;20455;-59
2023/04/16 08:24:56;;;;;;;11.27;10.43;;;;;;;;;;5034296;28;20420;-59
2023/04/16 08:27:22;;;;;;;9.67;9.03;;;;;;;;;;5034685;28;20423;-59
2023/04/16 08:29:48;;;;;;;12.53;11.37;;;;;;;;;;5034264;28;20918;-59
2023/04/16 08:32:14;;;;;;;12.13;11.07;;;;;;;;;;5034182;28;20543;-59
2023/04/16 08:34:43;;;;;;;11.17;10.30;;;;;;;;;;5034416;28;20803;-59
2023/04/16 08:37:09;;;;;;;13.27;10.93;;;;;;;;;;5033970;28;20414;-59
2023/04/16 08:39:35;;;;;;;10.93;9.90;;;;;;;;;;5034171;28;20949;-59
2023/04/16 08:42:04;;;;;;;11.20;10.17;;;;;;;;;;5033864;28;20415;-59
2023/04/16 08:44:37;;;;;;;11.70;10.50;;;;;;;;;;5034152;28;20929;-59
2023/04/16 08:47:03;;;;;;;10.90;9.83;;;;;;;;;;5033735;28;20411;-59
2023/04/16 08:49:29;;;;;;;10.83;9.87;;;;;;;;;;5033694;28;20442;-59
2023/04/16 08:51:56;;;;;;;10.30;9.27;;;;;;;;;;5015564;28;20424;-59
2023/04/16 08:54:24;;;;;;;11.03;10.03;;;;;;;;;;5034033;28;20534;-59
2023/04/16 08:56:51;;;;;;;11.83;10.70;;;;;;;;;;5033794;28;20418;-59
2023/04/16 08:59:17;;;;;;;11.03;10.20;;;;;;;;;;5033868;28;20426;-59
2023/04/16 09:01:44;;;;;;;11.30;10.20;;;;;;;;;;5033407;28;20439;-59
2023/04/16 09:04:10;;;;;;;11.77;10.63;;;;;;;;;;5033754;28;20427;-59
2023/04/16 09:06:37;;;;;;;10.80;9.80;;;;;;;;;;5033331;28;20930;-59
2023/04/16 09:09:04;;;;;;;12.40;11.10;;;;;;;;;;5033259;28;20412;-59
2023/04/16 09:11:30;;;;;;;12.00;10.33;;;;;;;;;;5033067;28;20937;-59
2023/04/16 09:14:01;;;;;;;12.20;10.70;;;;;;;;;;5033255;28;20925;-59
2023/04/16 09:16:30;;;;;;;10.97;9.87;;;;;;;;;;5033061;28;20956;-59
2023/04/16 09:18:56;;;;;;;11.93;10.53;;;;;;;;;;5033465;28;20408;-58
2023/04/16 09:21:22;;;;;;;11.27;10.10;;;;;;;;;;5033071;28;20432;-59
2023/04/16 09:23:49;;;;;;;11.93;10.43;;;;;;;;;;5032526;28;20474;-59
2023/04/16 09:26:15;;;;;;;11.73;10.23;;;;;;;;;;5032970;28;20412;-58
2023/04/16 09:28:45;;;;;;;12.83;11.40;;;;;;;;;;5033275;28;20432;-59
2023/04/16 09:31:18;;;;;;;12.57;11.33;;;;;;;;;;5033323;28;20419;-59
2023/04/16 09:34:00;;;;;;;12.80;11.50;;;;;;;;;;5032866;28;20522;-59
2023/04/16 09:36:30;;;;;;;14.17;12.73;;;;;;;;;;5033006;28;20769;-59
2023/04/16 09:38:56;;;;;;;11.87;10.83;;;;;;;;;;5032935;28;20446;-59
2023/04/16 09:41:27;;;;;;;11.50;10.53;;;;;;;;;;5032998;28;20431;-59
2023/04/16 09:43:54;;;;;;;11.60;10.40;;;;;;;;;;5032638;28;20970;-59
2023/04/16 09:46:20;;;;;;;12.93;11.33;;;;;;;;;;5033041;28;20762;-59
2023/04/16 09:48:48;;;;;;;12.73;11.10;;;;;;;;;;5015005;28;20423;-59
2023/04/16 09:51:17;;;;;;;14.23;11.47;;;;;;;;;;5032669;28;20436;-59
2023/04/16 09:53:45;;;;;;;11.90;10.73;;;;;;;;;;5032809;28;20971;-59
2023/04/16 09:56:11;;;;;;;18.23;16.23;;;;;;;;;;5032819;28;20451;-59
2023/04/16 09:58:37;;;;;;;14.23;11.83;;;;;;;;;;5032718;28;20486;-59
2023/04/16 10:01:03;;;;;;;12.60;10.33;;;;;;;;;;5032628;28;20436;-59
2023/04/16 10:03:30;;;;;;;15.23;11.93;;;;;;;;;;5014320;28;20468;-59
2023/04/16 10:05:59;;;;;;;24.17;13.47;;;;;;;;;;5032687;28;20407;-60
2023/04/16 10:08:25;;;;;;;13.83;10.77;;;;;;;;;;5032676;28;20455;-60
2023/04/16 10:10:52;;;;;;;13.57;11.90;;;;;;;;;;5032836;28;20570;-60
2023/04/16 10:13:20;;;;;;;12.93;10.93;;;;;;;;;;5014567;28;20458;-60
2023/04/16 10:15:47;;;;;;;15.57;12.87;;;;;;;;;;5032428;28;20455;-60
2023/04/16 10:18:13;;;;;;;13.97;12.43;;;;;;;;;;5032268;28;20943;-60
2023/04/16 10:20:42;;;;;;;14.40;12.87;;;;;;;;;;5032256;28;20416;-60
2023/04/16 10:23:08;;;;;;;14.53;13.03;;;;;;;;;;5031921;28;20494;-60
2023/04/16 10:25:34;;;;;;;13.67;12.37;;;;;;;;;;5031958;28;20423;-60
2023/04/16 10:28:00;;;;;;;17.60;13.47;;;;;;;;;;5014344;28;20415;-60
2023/04/16 10:30:29;;;;;;;16.37;12.57;;;;;;;;;;5032049;28;20775;-60
2023/04/16 10:32:55;;;;;;;19.37;14.13;;;;;;;;;;5032054;28;20456;-60
2023/04/16 10:35:21;;;;;;;13.80;12.50;;;;;;;;;;5031965;28;20424;-60
2023/04/16 10:37:47;;;;;;;16.03;13.03;;;;;;;;;;5031807;28;20465;-60
2023/04/16 10:40:26;;;;;;;17.13;15.10;;;;;;;;;;5031790;28;20953;-60
2023/04/16 10:42:55;;;;;;;19.20;13.77;;;;;;;;;;5031738;28;20465;-60
2023/04/16 10:45:26;;;;;;;15.03;13.20;;;;;;;;;;5031965;28;20436;-59
2023/04/16 10:47:56;;;;;;;17.33;14.17;;;;;;;;;;5031683;28;20880;-59
2023/04/16 10:50:22;;;;;;;18.63;13.87;;;;;;;;;;5032293;28;20470;-59
2023/04/16 10:52:48;;;;;;;18.67;14.07;;;;;;;;;;5031412;28;20504;-59
2023/04/16 10:55:17;;;;;;;15.63;13.20;;;;;;;;;;5031883;28;20495;-59
2023/04/16 10:57:48;;;;;;;16.07;13.97;;;;;;;;;;5031447;28;20434;-60
2023/04/16 11:00:21;;;;;;;16.57;13.33;;;;;;;;;;5031648;28;20420;-59
2023/04/16 11:02:52;;;;;;;17.70;14.80;;;;;;;;;;5031307;28;20470;-59
2023/04/16 11:05:21;;;;;;;19.17;14.00;;;;;;;;;;5014042;28;20419;-59
2023/04/16 11:07:50;;;;;;;17.83;14.03;;;;;;;;;;5013741;28;20436;-60
2023/04/16 11:10:18;;;;;;;15.10;12.20;;;;;;;;;;5031797;28;20412;-59
2023/04/16 11:12:47;;;;;;;18.30;15.57;;;;;;;;;;5031722;28;20431;-59
2023/04/16 11:15:14;;;;;;;16.17;13.20;;;;;;;;;;5034290;28;20435;-60
2023/04/16 11:17:40;;;;;;;16.53;13.63;;;;;;;;;;5035603;28;20415;-60
2023/04/16 11:20:06;;;;;;;17.27;13.50;;;;;;;;;;5035397;28;20807;-59
2023/04/16 11:22:37;;;;;;;25.83;19.77;;;;;;;;;;5017704;28;20459;-60
2023/04/16 11:25:03;;;;;;;30.37;24.60;;;;;;;;;;5035308;28;20426;-59
2023/04/16 11:27:32;;;;;;;14.43;12.93;;;;;;;;;;5035315;28;20778;-59
2023/04/16 11:29:58;;;;;;;13.77;12.33;;;;;;;;;;5034882;28;20420;-59
2023/04/16 11:32:25;;;;;;;14.13;12.77;;;;;;;;;;5017674;28;20428;-59
2023/04/16 11:34:51;;;;;;;14.63;13.13;;;;;;;;;;5035335;28;20824;-60
2023/04/16 11:37:21;;;;;;;23.40;14.43;;;;;;;;;;5035469;28;20448;-60
2023/04/16 11:39:48;;;;;;;18.27;14.47;;;;;;;;;;5035055;28;20849;-59
2023/04/16 11:42:18;;;;;;;14.93;13.33;;;;;;;;;;5035555;28;20475;-59
2023/04/16 11:44:46;;;;;;;16.00;13.17;;;;;;;;;;5017126;28;20417;-59
2023/04/16 11:47:12;;;;;;;14.00;12.37;;;;;;;;;;5035001;28;20435;-59
2023/04/16 11:49:38;;;;;;;16.87;14.27;;;;;;;;;;5034931;28;20415;-59
2023/04/16 11:52:04;;;;;;;13.93;12.47;;;;;;;;;;5017359;28;20891;-59
2023/04/16 11:54:33;;;;;;;14.37;12.93;;;;;;;;;;5034950;28;20931;-59
2023/04/16 11:57:00;;;;;;;32.67;19.17;;;;;;;;;;5035206;28;20824;-59
2023/04/16 11:59:28;;;;;;;35.30;18.90;;;;;;;;;;5035228;28;20426;-59
2023/04/16 12:01:56;;;;;;;14.40;12.17;;;;;;;;;;5034942;28;20427;-59
2023/04/16 12:04:24;;;;;;;13.77;12.33;;;;;;;;;;5035295;28;20503;-59
2023/04/16 12:07:08;;;;;;;15.63;13.13;;;;;;;;;;5017596;28;20448;-59
2023/04/16 12:09:35;;;;;;;25.10;15.83;;;;;;;;;;5035289;28;20735;-59
2023/04/16 12:12:01;;;;;;;20.43;14.17;;;;;;;;;;5017031;28;20514;-58
2023/04/16 12:14:30;;;;;;;17.73;13.83;;;;;;;;;;5035091;28;20416;-59
2023/04/16 12:16:57;;;;;;;15.90;13.67;;;;;;;;;;5034772;28;20469;-59
2023/04/16 12:19:23;;;;;;;23.00;14.53;;;;;;;;;;5017196;28;20415;-60
2023/04/16 12:21:51;;;;;;;30.90;18.50;;;;;;;;;;5034881;28;20495;-59
2023/04/16 12:24:23;;;;;;;87.33;32.13;;;;;;;;;;5034800;28;20876;-60
2023/04/16 12:26:56;;;;;;;55.57;23.23;;;;;;;;;;5033985;28;20899;-59
2023/04/16 12:29:26;;;;;;;50.50;20.90;;;;;;;;;;5034179;28;20498;-59
2023/04/16 12:31:53;;;;;;;20.30;15.87;;;;;;;;;;5034567;28;20422;-60
2023/04/16 12:34:19;;;;;;;23.00;15.40;;;;;;;;;;5017098;28;20714;-60
2023/04/16 12:36:46;;;;;;;21.97;15.97;;;;;;;;;;5034765;28;20925;-59
2023/04/16 12:39:15;;;;;;;20.20;15.90;;;;;;;;;;5034277;28;20412;-60
2023/04/16 12:41:42;;;;;;;17.93;14.40;;;;;;;;;;5034622;28;20419;-60
2023/04/16 12:44:10;;;;;;;15.17;13.57;;;;;;;;;;5034506;28;20456;-59
2023/04/16 12:46:36;;;;;;;29.30;17.37;;;;;;;;;;5034551;28;20412;-60
2023/04/16 12:49:02;;;;;;;27.83;17.37;;;;;;;;;;5034490;28;20423;-60
2023/04/16 12:51:29;;;;;;;22.93;15.70;;;;;;;;;;5034546;28;20511;-60
2023/04/16 12:53:55;;;;;;;17.10;13.77;;;;;;;;;;5034288;28;20436;-59
2023/04/16 12:56:21;;;;;;;51.73;22.00;;;;;;;;;;5016364;28;20907;-60
2023/04/16 12:58:50;;;;;;;37.43;17.33;;;;;;;;;;5033527;28;20523;-59
2023/04/16 13:01:16;;;;;;;23.23;14.33;;;;;;;;;;5033923;28;20435;-60
2023/04/16 13:03:42;;;;;;;25.27;14.47;;;;;;;;;;5016134;28;20476;-59
2023/04/16 13:06:08;;;;;;;21.30;14.53;;;;;;;;;;5033967;28;20762;-60
2023/04/16 13:08:36;;;;;;;16.77;14.03;;;;;;;;;;5034055;28;20420;-59
2023/04/16 13:11:03;;;;;;;32.97;18.90;;;;;;;;;;5033942;28;20451;-60
2023/04/16 13:13:29;;;;;;;40.87;22.93;;;;;;;;;;5033997;28;20422;-60
2023/04/16 13:15:55;;;;;;;44.50;28.07;;;;;;;;;;5034049;28;20503;-60
2023/04/16 13:18:21;;;;;;;34.20;21.27;;;;;;;;;;5034157;28;20463;-60
2023/04/16 13:20:48;;;;;;;26.27;16.57;;;;;;;;;;5034312;28;20498;-60
2023/04/16 13:23:16;;;;;;;14.70;12.60;;;;;;;;;;5016552;28;20514;-59
2023/04/16 13:25:45;;;;;;;14.67;13.00;;;;;;;;;;5033747;28;20771;-60
2023/04/16 13:28:11;;;;;;;14.37;12.83;;;;;;;;;;5033823;28;20408;-59
2023/04/16 13:30:37;;;;;;;13.10;11.80;;;;;;;;;;5033518;28;20442;-60
2023/04/16 13:33:03;;;;;;;13.13;11.83;;;;;;;;;;5033931;28;20431;-60
2023/04/16 13:35:29;;;;;;;12.57;11.33;;;;;;;;;;5033397;28;20435;-60
2023/04/16 13:37:55;;;;;;;13.10;11.80;;;;;;;;;;5032410;28;20884;-60
2023/04/16 13:40:21;;;;;;;11.97;10.77;;;;;;;;;;5033631;28;20407;-60
2023/04/16 13:42:47;;;;;;;12.67;11.37;;;;;;;;;;5033077;28;20491;-60
2023/04/16 13:45:13;;;;;;;17.33;15.37;;;;;;;;;;5033277;28;20419;-60
2023/04/16 13:47:45;;;;;;;39.43;31.43;;;;;;;;;;5033433;28;20895;-60
2023/04/16 13:50:13;;;;;;;17.20;13.47;;;;;;;;;;5015519;28;20481;-59
2023/04/16 13:52:40;;;;;;;12.90;11.60;;;;;;;;;;5033167;28;20435;-60
2023/04/16 13:55:08;;;;;;;18.97;13.73;;;;;;;;;;5033251;28;20506;-59
2023/04/16 13:57:36;;;;;;;24.33;15.13;;;;;;;;;;5032987;28;20419;-60
2023/04/16 14:00:14;;;;;;;16.70;13.17;;;;;;;;;;5089569;28;20587;-59
2023/04/16 14:02:40;;;;;;;24.90;15.80;;;;;;;;;;5088155;28;20940;-60
2023/04/16 14:05:07;;;;;;;14.27;12.77;;;;;;;;;;5089560;28;20401;-60
2023/04/16 14:07:33;;;;;;;12.37;11.07;;;;;;;;;;5089405;28;20409;-60
2023/04/16 14:09:59;;;;;;;12.50;11.20;;;;;;;;;;5089770;28;20429;-60
2023/04/16 14:12:25;;;;;;;22.53;15.03;;;;;;;;;;5089484;28;20432;-60
2023/04/16 14:14:53;;;;;;;17.30;13.67;;;;;;;;;;5089720;28;20402;-60
2023/04/16 14:17:19;;;;;;;37.17;24.73;;;;;;;;;;5089132;28;20488;-60